sensor_id;sensor_type;location;lat;lon;timestamp;P1;durP1;ratioP1;P2;durP2;ratioP2
22768;SDS011;13001;51.968;5.918;2023-04-25T00:00:07;365.10;;;340.80;;
22768;SDS011;13001;51.968;5.918;2023-04-25T00:02:35;377.60;;;352.70;;
22768;SDS011;13001;51.968;5.918;2023-04-25T00:05:02;371.47;;;347.47;;
22768;SDS011;13001;51.968;5.918;2023-04-25T00:07:31;375.23;;;350.43;;
22768;SDS011;13001;51.968;5.918;2023-04-25T00:09:58;409.13;;;381.87;;
22768;SDS011;13001;51.968;5.918;2023-04-25T00:12:25;477.80;;;444.60;;
22768;SDS011;13001;51.968;5.918;2023-04-25T00:14:54;477.23;;;443.57;;
22768;SDS011;13001;51.968;5.918;2023-04-25T00:17:23;453.70;;;422.87;;
22768;SDS011;13001;51.968;5.918;2023-04-25T00:19:53;459.17;;;427.67;;
22768;SDS011;13001;51.968;5.918;2023-04-25T00:22:20;438.97;;;409.47;;
22768;SDS011;13001;51.968;5.918;2023-04-25T00:24:48;463.27;;;431.17;;
22768;SDS011;13001;51.968;5.918;2023-04-25T00:27:15;450.77;;;419.10;;
22768;SDS011;13001;51.968;5.918;2023-04-25T00:29:42;460.77;;;429.27;;
22768;SDS011;13001;51.968;5.918;2023-04-25T00:32:09;435.60;;;406.07;;
22768;SDS011;13001;51.968;5.918;2023-04-25T00:34:38;464.27;;;432.20;;
22768;SDS011;13001;51.968;5.918;2023-04-25T00:37:06;491.93;;;456.37;;
22768;SDS011;13001;51.968;5.918;2023-04-25T00:39:33;513.90;;;477.23;;
22768;SDS011;13001;51.968;5.918;2023-04-25T00:42:00;526.77;;;488.70;;
22768;SDS011;13001;51.968;5.918;2023-04-25T00:44:29;519.87;;;481.80;;
22768;SDS011;13001;51.968;5.918;2023-04-25T00:46:56;513.53;;;476.57;;
22768;SDS011;13001;51.968;5.918;2023-04-25T00:49:24;523.50;;;485.00;;
22768;SDS011;13001;51.968;5.918;2023-04-25T00:51:51;488.50;;;453.20;;
22768;SDS011;13001;51.968;5.918;2023-04-25T00:54:18;504.03;;;467.63;;
22768;SDS011;13001;51.968;5.918;2023-04-25T00:56:46;531.50;;;493.33;;
22768;SDS011;13001;51.968;5.918;2023-04-25T00:59:13;531.03;;;492.47;;
22768;SDS011;13001;51.968;5.918;2023-04-25T01:01:41;537.50;;;498.63;;
22768;SDS011;13001;51.968;5.918;2023-04-25T01:04:09;544.70;;;505.43;;
22768;SDS011;13001;51.968;5.918;2023-04-25T01:06:36;542.03;;;502.97;;
22768;SDS011;13001;51.968;5.918;2023-04-25T01:09:03;536.07;;;497.10;;
22768;SDS011;13001;51.968;5.918;2023-04-25T01:11:31;531.43;;;493.50;;
22768;SDS011;13001;51.968;5.918;2023-04-25T01:13:58;487.20;;;452.40;;
22768;SDS011;13001;51.968;5.918;2023-04-25T01:16:26;527.87;;;490.03;;
22768;SDS011;13001;51.968;5.918;2023-04-25T01:18:54;499.23;;;463.57;;
22768;SDS011;13001;51.968;5.918;2023-04-25T01:21:21;507.97;;;471.37;;
22768;SDS011;13001;51.968;5.918;2023-04-25T01:23:48;525.27;;;488.13;;
22768;SDS011;13001;51.968;5.918;2023-04-25T01:26:16;519.63;;;482.83;;
22768;SDS011;13001;51.968;5.918;2023-04-25T01:28:44;544.33;;;504.83;;
22768;SDS011;13001;51.968;5.918;2023-04-25T01:31:11;467.27;;;434.63;;
22768;SDS011;13001;51.968;5.918;2023-04-25T01:33:39;460.57;;;427.97;;
22768;SDS011;13001;51.968;5.918;2023-04-25T01:36:07;424.10;;;394.57;;
22768;SDS011;13001;51.968;5.918;2023-04-25T01:38:34;429.73;;;399.73;;
22768;SDS011;13001;51.968;5.918;2023-04-25T01:41:02;482.13;;;447.63;;
22768;SDS011;13001;51.968;5.918;2023-04-25T01:43:29;480.73;;;447.03;;
22768;SDS011;13001;51.968;5.918;2023-04-25T01:45:57;484.80;;;449.90;;
22768;SDS011;13001;51.968;5.918;2023-04-25T01:48:24;430.33;;;401.10;;
22768;SDS011;13001;51.968;5.918;2023-04-25T01:50:51;492.93;;;457.90;;
22768;SDS011;13001;51.968;5.918;2023-04-25T01:53:19;469.33;;;435.90;;
22768;SDS011;13001;51.968;5.918;2023-04-25T01:55:46;488.20;;;453.60;;
22768;SDS011;13001;51.968;5.918;2023-04-25T01:58:13;470.47;;;437.23;;
22768;SDS011;13001;51.968;5.918;2023-04-25T02:00:40;467.07;;;433.70;;
22768;SDS011;13001;51.968;5.918;2023-04-25T02:03:08;450.30;;;419.40;;
22768;SDS011;13001;51.968;5.918;2023-04-25T02:05:35;479.60;;;445.90;;
22768;SDS011;13001;51.968;5.918;2023-04-25T02:08:04;452.40;;;421.23;;
22768;SDS011;13001;51.968;5.918;2023-04-25T02:10:32;389.17;;;362.63;;
22768;SDS011;13001;51.968;5.918;2023-04-25T02:12:59;409.47;;;381.50;;
22768;SDS011;13001;51.968;5.918;2023-04-25T02:15:26;389.33;;;363.10;;
22768;SDS011;13001;51.968;5.918;2023-04-25T02:17:54;338.77;;;316.63;;
22768;SDS011;13001;51.968;5.918;2023-04-25T02:20:21;335.47;;;313.70;;
22768;SDS011;13001;51.968;5.918;2023-04-25T02:22:49;404.20;;;376.20;;
22768;SDS011;13001;51.968;5.918;2023-04-25T02:25:17;411.70;;;383.23;;
22768;SDS011;13001;51.968;5.918;2023-04-25T02:27:46;318.33;;;297.47;;
22768;SDS011;13001;51.968;5.918;2023-04-25T02:30:14;323.37;;;302.17;;
22768;SDS011;13001;51.968;5.918;2023-04-25T02:32:41;304.50;;;284.80;;
22768;SDS011;13001;51.968;5.918;2023-04-25T02:35:09;337.80;;;315.40;;
22768;SDS011;13001;51.968;5.918;2023-04-25T02:37:37;297.33;;;278.57;;
22768;SDS011;13001;51.968;5.918;2023-04-25T02:40:05;319.37;;;298.23;;
22768;SDS011;13001;51.968;5.918;2023-04-25T02:42:32;303.67;;;283.77;;
22768;SDS011;13001;51.968;5.918;2023-04-25T02:45:00;299.23;;;280.20;;
22768;SDS011;13001;51.968;5.918;2023-04-25T02:47:27;307.73;;;287.80;;
22768;SDS011;13001;51.968;5.918;2023-04-25T02:49:54;284.53;;;266.50;;
22768;SDS011;13001;51.968;5.918;2023-04-25T02:52:22;300.40;;;281.00;;
22768;SDS011;13001;51.968;5.918;2023-04-25T02:54:49;305.60;;;285.77;;
22768;SDS011;13001;51.968;5.918;2023-04-25T02:57:16;393.23;;;366.40;;
22768;SDS011;13001;51.968;5.918;2023-04-25T02:59:43;453.80;;;421.73;;
22768;SDS011;13001;51.968;5.918;2023-04-25T03:02:11;452.67;;;420.97;;
22768;SDS011;13001;51.968;5.918;2023-04-25T03:04:38;437.17;;;406.87;;
22768;SDS011;13001;51.968;5.918;2023-04-25T03:07:06;466.37;;;434.00;;
22768;SDS011;13001;51.968;5.918;2023-04-25T03:09:33;448.53;;;417.33;;
22768;SDS011;13001;51.968;5.918;2023-04-25T03:12:01;463.03;;;430.70;;
22768;SDS011;13001;51.968;5.918;2023-04-25T03:14:28;469.77;;;436.60;;
22768;SDS011;13001;51.968;5.918;2023-04-25T03:16:56;444.07;;;412.97;;
22768;SDS011;13001;51.968;5.918;2023-04-25T03:19:23;470.63;;;437.97;;
22768;SDS011;13001;51.968;5.918;2023-04-25T03:21:50;465.80;;;432.87;;
22768;SDS011;13001;51.968;5.918;2023-04-25T03:24:18;466.90;;;433.43;;
22768;SDS011;13001;51.968;5.918;2023-04-25T03:26:45;484.93;;;450.60;;
22768;SDS011;13001;51.968;5.918;2023-04-25T03:29:12;478.43;;;443.83;;
22768;SDS011;13001;51.968;5.918;2023-04-25T03:31:39;471.20;;;437.97;;
22768;SDS011;13001;51.968;5.918;2023-04-25T03:34:07;415.37;;;386.43;;
22768;SDS011;13001;51.968;5.918;2023-04-25T03:36:34;451.40;;;420.17;;
22768;SDS011;13001;51.968;5.918;2023-04-25T03:39:01;417.57;;;388.57;;
22768;SDS011;13001;51.968;5.918;2023-04-25T03:41:29;443.10;;;411.87;;
22768;SDS011;13001;51.968;5.918;2023-04-25T03:43:56;448.93;;;417.47;;
22768;SDS011;13001;51.968;5.918;2023-04-25T03:46:23;460.20;;;428.00;;
22768;SDS011;13001;51.968;5.918;2023-04-25T03:48:50;457.80;;;426.00;;
22768;SDS011;13001;51.968;5.918;2023-04-25T03:51:18;450.50;;;419.73;;
22768;SDS011;13001;51.968;5.918;2023-04-25T03:53:45;426.80;;;397.10;;
22768;SDS011;13001;51.968;5.918;2023-04-25T03:56:12;446.57;;;414.83;;
22768;SDS011;13001;51.968;5.918;2023-04-25T03:58:39;438.57;;;407.53;;
22768;SDS011;13001;51.968;5.918;2023-04-25T04:01:07;444.30;;;412.20;;
22768;SDS011;13001;51.968;5.918;2023-04-25T04:03:34;446.97;;;414.87;;
22768;SDS011;13001;51.968;5.918;2023-04-25T04:06:03;461.60;;;429.10;;
22768;SDS011;13001;51.968;5.918;2023-04-25T04:08:32;452.93;;;421.00;;
22768;SDS011;13001;51.968;5.918;2023-04-25T04:10:59;434.90;;;403.83;;
22768;SDS011;13001;51.968;5.918;2023-04-25T04:13:26;398.20;;;370.73;;
22768;SDS011;13001;51.968;5.918;2023-04-25T04:15:54;435.07;;;404.67;;
22768;SDS011;13001;51.968;5.918;2023-04-25T04:18:21;429.80;;;399.77;;
22768;SDS011;13001;51.968;5.918;2023-04-25T04:20:49;423.80;;;394.13;;
22768;SDS011;13001;51.968;5.918;2023-04-25T04:23:16;437.23;;;406.47;;
22768;SDS011;13001;51.968;5.918;2023-04-25T04:25:44;427.77;;;397.63;;
22768;SDS011;13001;51.968;5.918;2023-04-25T04:28:11;438.30;;;407.17;;
22768;SDS011;13001;51.968;5.918;2023-04-25T04:30:39;441.03;;;410.17;;
22768;SDS011;13001;51.968;5.918;2023-04-25T04:33:07;445.30;;;413.80;;
22768;SDS011;13001;51.968;5.918;2023-04-25T04:35:35;444.70;;;413.10;;
22768;SDS011;13001;51.968;5.918;2023-04-25T04:38:02;431.60;;;400.50;;
22768;SDS011;13001;51.968;5.918;2023-04-25T04:40:29;431.60;;;401.30;;
22768;SDS011;13001;51.968;5.918;2023-04-25T04:42:59;414.83;;;385.40;;
22768;SDS011;13001;51.968;5.918;2023-04-25T04:45:27;437.70;;;406.67;;
22768;SDS011;13001;51.968;5.918;2023-04-25T04:47:54;425.70;;;395.47;;
22768;SDS011;13001;51.968;5.918;2023-04-25T04:50:22;414.27;;;384.90;;
22768;SDS011;13001;51.968;5.918;2023-04-25T04:52:50;420.27;;;390.90;;
22768;SDS011;13001;51.968;5.918;2023-04-25T04:55:18;414.97;;;385.67;;
22768;SDS011;13001;51.968;5.918;2023-04-25T04:57:45;413.07;;;384.20;;
22768;SDS011;13001;51.968;5.918;2023-04-25T05:00:12;410.43;;;381.50;;
22768;SDS011;13001;51.968;5.918;2023-04-25T05:02:40;402.83;;;374.47;;
22768;SDS011;13001;51.968;5.918;2023-04-25T05:05:07;404.70;;;376.40;;
22768;SDS011;13001;51.968;5.918;2023-04-25T05:07:34;422.20;;;391.10;;
22768;SDS011;13001;51.968;5.918;2023-04-25T05:10:02;421.50;;;391.97;;
22768;SDS011;13001;51.968;5.918;2023-04-25T05:12:29;404.00;;;375.27;;
22768;SDS011;13001;51.968;5.918;2023-04-25T05:14:56;398.07;;;370.30;;
22768;SDS011;13001;51.968;5.918;2023-04-25T05:17:24;423.93;;;394.83;;
22768;SDS011;13001;51.968;5.918;2023-04-25T05:19:51;414.43;;;386.03;;
22768;SDS011;13001;51.968;5.918;2023-04-25T05:22:19;352.93;;;329.90;;
22768;SDS011;13001;51.968;5.918;2023-04-25T05:24:46;381.90;;;355.67;;
22768;SDS011;13001;51.968;5.918;2023-04-25T05:27:16;395.57;;;369.30;;
22768;SDS011;13001;51.968;5.918;2023-04-25T05:29:43;255.97;;;240.07;;
22768;SDS011;13001;51.968;5.918;2023-04-25T05:32:11;260.30;;;244.00;;
22768;SDS011;13001;51.968;5.918;2023-04-25T05:34:38;240.13;;;224.77;;
22768;SDS011;13001;51.968;5.918;2023-04-25T05:37:06;269.87;;;252.63;;
22768;SDS011;13001;51.968;5.918;2023-04-25T05:39:33;215.37;;;201.87;;
22768;SDS011;13001;51.968;5.918;2023-04-25T05:42:00;205.50;;;192.33;;
22768;SDS011;13001;51.968;5.918;2023-04-25T05:44:28;193.70;;;181.63;;
22768;SDS011;13001;51.968;5.918;2023-04-25T05:46:55;179.33;;;168.00;;
22768;SDS011;13001;51.968;5.918;2023-04-25T05:49:22;195.77;;;182.73;;
22768;SDS011;13001;51.968;5.918;2023-04-25T05:51:50;171.53;;;160.10;;
22768;SDS011;13001;51.968;5.918;2023-04-25T05:54:17;168.70;;;156.70;;
22768;SDS011;13001;51.968;5.918;2023-04-25T05:56:44;176.73;;;164.10;;
22768;SDS011;13001;51.968;5.918;2023-04-25T05:59:11;183.30;;;170.47;;
22768;SDS011;13001;51.968;5.918;2023-04-25T06:01:39;127.43;;;117.97;;
22768;SDS011;13001;51.968;5.918;2023-04-25T06:04:06;136.40;;;126.60;;
22768;SDS011;13001;51.968;5.918;2023-04-25T06:06:33;137.53;;;127.70;;
22768;SDS011;13001;51.968;5.918;2023-04-25T06:09:01;131.73;;;122.47;;
22768;SDS011;13001;51.968;5.918;2023-04-25T06:11:28;136.67;;;127.17;;
22768;SDS011;13001;51.968;5.918;2023-04-25T06:13:56;128.30;;;119.50;;
22768;SDS011;13001;51.968;5.918;2023-04-25T06:16:23;165.87;;;154.03;;
22768;SDS011;13001;51.968;5.918;2023-04-25T06:18:52;144.03;;;133.07;;
22768;SDS011;13001;51.968;5.918;2023-04-25T06:21:19;149.00;;;138.30;;
22768;SDS011;13001;51.968;5.918;2023-04-25T06:23:46;167.97;;;155.00;;
22768;SDS011;13001;51.968;5.918;2023-04-25T06:26:14;163.57;;;151.07;;
22768;SDS011;13001;51.968;5.918;2023-04-25T06:28:41;172.17;;;159.63;;
22768;SDS011;13001;51.968;5.918;2023-04-25T06:31:08;179.17;;;165.70;;
22768;SDS011;13001;51.968;5.918;2023-04-25T06:33:36;202.50;;;186.53;;
22768;SDS011;13001;51.968;5.918;2023-04-25T06:36:03;200.23;;;184.63;;
22768;SDS011;13001;51.968;5.918;2023-04-25T06:38:30;236.33;;;218.63;;
22768;SDS011;13001;51.968;5.918;2023-04-25T06:40:58;287.00;;;265.90;;
22768;SDS011;13001;51.968;5.918;2023-04-25T06:43:25;321.13;;;297.53;;
22768;SDS011;13001;51.968;5.918;2023-04-25T06:45:52;364.33;;;336.17;;
22768;SDS011;13001;51.968;5.918;2023-04-25T06:48:19;460.17;;;425.40;;
22768;SDS011;13001;51.968;5.918;2023-04-25T06:50:47;449.53;;;417.30;;
22768;SDS011;13001;51.968;5.918;2023-04-25T06:53:14;454.70;;;421.90;;
22768;SDS011;13001;51.968;5.918;2023-04-25T06:55:41;521.53;;;484.67;;
22768;SDS011;13001;51.968;5.918;2023-04-25T06:58:08;466.67;;;435.17;;
22768;SDS011;13001;51.968;5.918;2023-04-25T07:00:36;495.80;;;462.90;;
22768;SDS011;13001;51.968;5.918;2023-04-25T07:03:03;470.33;;;438.73;;
22768;SDS011;13001;51.968;5.918;2023-04-25T07:05:30;469.50;;;439.73;;
22768;SDS011;13001;51.968;5.918;2023-04-25T07:07:57;378.80;;;355.10;;
22768;SDS011;13001;51.968;5.918;2023-04-25T07:10:25;354.37;;;332.27;;
22768;SDS011;13001;51.968;5.918;2023-04-25T07:12:52;415.03;;;387.90;;
22768;SDS011;13001;51.968;5.918;2023-04-25T07:15:19;424.77;;;395.40;;
22768;SDS011;13001;51.968;5.918;2023-04-25T07:17:47;431.80;;;400.57;;
22768;SDS011;13001;51.968;5.918;2023-04-25T07:20:14;365.00;;;340.47;;
22768;SDS011;13001;51.968;5.918;2023-04-25T07:22:42;452.50;;;421.93;;
22768;SDS011;13001;51.968;5.918;2023-04-25T07:25:10;422.53;;;395.73;;
22768;SDS011;13001;51.968;5.918;2023-04-25T08:23:48;465.47;;;436.58;;
22768;SDS011;13001;51.968;5.918;2023-04-25T08:26:15;411.58;;;384.98;;
22768;SDS011;13001;51.968;5.918;2023-04-25T08:38:29;187.37;;;176.50;;
22768;SDS011;13001;51.968;5.918;2023-04-25T08:55:39;231.93;;;218.47;;
22768;SDS011;13001;51.968;5.918;2023-04-25T08:58:08;113.80;;;106.60;;
22768;SDS011;13001;51.968;5.918;2023-04-25T09:00:36;201.70;;;188.03;;
22768;SDS011;13001;51.968;5.918;2023-04-25T09:03:04;252.23;;;237.03;;
22768;SDS011;13001;51.968;5.918;2023-04-25T09:05:34;292.10;;;273.23;;
22768;SDS011;13001;51.968;5.918;2023-04-25T09:52:15;656.67;;;609.13;;
22768;SDS011;13001;51.968;5.918;2023-04-25T09:54:45;579.10;;;534.98;;
22768;SDS011;13001;51.968;5.918;2023-04-25T09:57:15;693.55;;;639.55;;
22768;SDS011;13001;51.968;5.918;2023-04-25T09:59:50;491.68;;;458.75;;
22768;SDS011;13001;51.968;5.918;2023-04-25T10:02:23;394.82;;;369.77;;
22768;SDS011;13001;51.968;5.918;2023-04-25T10:04:57;263.50;;;248.28;;
22768;SDS011;13001;51.968;5.918;2023-04-25T10:07:23;203.10;;;191.05;;
22768;SDS011;13001;51.968;5.918;2023-04-25T10:09:58;179.00;;;168.62;;
22768;SDS011;13001;51.968;5.918;2023-04-25T10:12:21;135.90;;;128.05;;
22768;SDS011;13001;51.968;5.918;2023-04-25T10:14:49;135.48;;;127.55;;
22768;SDS011;13001;51.968;5.918;2023-04-25T10:17:16;120.62;;;113.72;;
22768;SDS011;13001;51.968;5.918;2023-04-25T10:19:44;135.03;;;127.02;;
22768;SDS011;13001;51.968;5.918;2023-04-25T10:22:18;99.72;;;93.90;;
22768;SDS011;13001;51.968;5.918;2023-04-25T10:24:56;97.90;;;92.00;;
22768;SDS011;13001;51.968;5.918;2023-04-25T10:27:26;218.13;;;204.90;;
22768;SDS011;13001;51.968;5.918;2023-04-25T10:30:04;285.33;;;267.57;;
22768;SDS011;13001;51.968;5.918;2023-04-25T10:32:38;217.73;;;203.10;;
22768;SDS011;13001;51.968;5.918;2023-04-25T10:38:03;350.20;;;328.33;;
22768;SDS011;13001;51.968;5.918;2023-04-25T10:40:33;319.93;;;300.03;;
22768;SDS011;13001;51.968;5.918;2023-04-25T10:48:32;205.40;;;192.13;;
22768;SDS011;13001;51.968;5.918;2023-04-25T10:51:11;243.47;;;228.67;;
22768;SDS011;13001;51.968;5.918;2023-04-25T10:53:44;214.83;;;201.77;;
22768;SDS011;13001;51.968;5.918;2023-04-25T10:56:26;171.97;;;159.83;;
22768;SDS011;13001;51.968;5.918;2023-04-25T10:59:05;176.20;;;163.30;;
22768;SDS011;13001;51.968;5.918;2023-04-25T11:01:45;211.03;;;197.40;;
22768;SDS011;13001;51.968;5.918;2023-04-25T11:04:22;280.97;;;262.70;;
22768;SDS011;13001;51.968;5.918;2023-04-25T11:06:55;262.47;;;245.10;;
22768;SDS011;13001;51.968;5.918;2023-04-25T11:09:38;382.07;;;356.00;;
22768;SDS011;13001;51.968;5.918;2023-04-25T11:12:02;424.50;;;395.13;;
22768;SDS011;13001;51.968;5.918;2023-04-25T11:14:30;314.70;;;294.47;;
22768;SDS011;13001;51.968;5.918;2023-04-25T11:16:58;269.10;;;252.63;;
22768;SDS011;13001;51.968;5.918;2023-04-25T11:19:28;355.03;;;332.07;;
22768;SDS011;13001;51.968;5.918;2023-04-25T11:21:56;418.67;;;390.07;;
22768;SDS011;13001;51.968;5.918;2023-04-25T11:24:27;433.47;;;405.17;;
22768;SDS011;13001;51.968;5.918;2023-04-25T11:26:58;354.43;;;329.23;;
22768;SDS011;13001;51.968;5.918;2023-04-25T11:29:32;307.27;;;287.07;;
22768;SDS011;13001;51.968;5.918;2023-04-25T11:32:00;456.30;;;425.40;;
22768;SDS011;13001;51.968;5.918;2023-04-25T11:34:28;411.37;;;383.20;;
22768;SDS011;13001;51.968;5.918;2023-04-25T11:36:58;393.47;;;367.20;;
22768;SDS011;13001;51.968;5.918;2023-04-25T11:39:28;396.40;;;369.60;;
22768;SDS011;13001;51.968;5.918;2023-04-25T11:41:56;457.83;;;426.87;;
22768;SDS011;13001;51.968;5.918;2023-04-25T11:44:24;428.67;;;401.40;;
22768;SDS011;13001;51.968;5.918;2023-04-25T11:46:52;390.60;;;365.47;;
22768;SDS011;13001;51.968;5.918;2023-04-25T11:49:19;415.40;;;389.57;;
22768;SDS011;13001;51.968;5.918;2023-04-25T11:51:48;393.63;;;369.30;;
22768;SDS011;13001;51.968;5.918;2023-04-25T11:54:15;378.87;;;355.40;;
22768;SDS011;13001;51.968;5.918;2023-04-25T11:56:43;393.77;;;369.07;;
22768;SDS011;13001;51.968;5.918;2023-04-25T11:59:12;357.47;;;334.30;;
22768;SDS011;13001;51.968;5.918;2023-04-25T12:01:47;342.10;;;319.37;;
22768;SDS011;13001;51.968;5.918;2023-04-25T12:04:16;300.67;;;281.10;;
22768;SDS011;13001;51.968;5.918;2023-04-25T12:06:46;386.47;;;361.37;;
22768;SDS011;13001;51.968;5.918;2023-04-25T12:09:17;391.23;;;366.83;;
22768;SDS011;13001;51.968;5.918;2023-04-25T12:11:48;360.20;;;338.00;;
22768;SDS011;13001;51.968;5.918;2023-04-25T12:14:25;364.33;;;341.73;;
22768;SDS011;13001;51.968;5.918;2023-04-25T12:16:50;348.33;;;326.53;;
22768;SDS011;13001;51.968;5.918;2023-04-25T12:19:18;346.10;;;322.10;;
22768;SDS011;13001;51.968;5.918;2023-04-25T12:21:47;289.03;;;269.83;;
22768;SDS011;13001;51.968;5.918;2023-04-25T12:24:17;261.40;;;244.93;;
22768;SDS011;13001;51.968;5.918;2023-04-25T12:29:24;184.07;;;172.40;;
22768;SDS011;13001;51.968;5.918;2023-04-25T13:01:28;257.03;;;239.37;;
22768;SDS011;13001;51.968;5.918;2023-04-25T13:03:56;247.87;;;231.67;;
22768;SDS011;13001;51.968;5.918;2023-04-25T13:06:24;218.60;;;204.10;;
22768;SDS011;13001;51.968;5.918;2023-04-25T13:08:52;356.50;;;331.53;;
22768;SDS011;13001;51.968;5.918;2023-04-25T13:11:20;207.73;;;194.07;;
22768;SDS011;13001;51.968;5.918;2023-04-25T13:13:47;298.70;;;277.07;;
22768;SDS011;13001;51.968;5.918;2023-04-25T13:16:15;285.80;;;267.10;;
22768;SDS011;13001;51.968;5.918;2023-04-25T13:18:43;359.20;;;334.53;;
22768;SDS011;13001;51.968;5.918;2023-04-25T13:21:10;212.27;;;198.97;;
22768;SDS011;13001;51.968;5.918;2023-04-25T13:23:38;389.47;;;363.57;;
22768;SDS011;13001;51.968;5.918;2023-04-25T13:26:06;416.33;;;388.17;;
22768;SDS011;13001;51.968;5.918;2023-04-25T13:28:34;425.50;;;395.90;;
22768;SDS011;13001;51.968;5.918;2023-04-25T13:31:01;402.97;;;375.87;;
22768;SDS011;13001;51.968;5.918;2023-04-25T13:33:29;332.83;;;310.37;;
22768;SDS011;13001;51.968;5.918;2023-04-25T13:35:56;253.80;;;238.20;;
22768;SDS011;13001;51.968;5.918;2023-04-25T13:38:24;335.03;;;313.03;;
22768;SDS011;13001;51.968;5.918;2023-04-25T13:40:53;447.23;;;417.03;;
22768;SDS011;13001;51.968;5.918;2023-04-25T13:43:21;498.17;;;463.53;;
22768;SDS011;13001;51.968;5.918;2023-04-25T13:45:49;502.30;;;467.63;;
22768;SDS011;13001;51.968;5.918;2023-04-25T13:48:18;392.27;;;365.87;;
22768;SDS011;13001;51.968;5.918;2023-04-25T13:50:45;359.57;;;335.43;;
22768;SDS011;13001;51.968;5.918;2023-04-25T13:53:13;472.07;;;439.93;;
22768;SDS011;13001;51.968;5.918;2023-04-25T13:55:40;468.87;;;436.33;;
22768;SDS011;13001;51.968;5.918;2023-04-25T13:58:08;487.40;;;454.27;;
22768;SDS011;13001;51.968;5.918;2023-04-25T14:00:38;470.43;;;438.00;;
22768;SDS011;13001;51.968;5.918;2023-04-25T14:03:08;478.87;;;444.87;;
22768;SDS011;13001;51.968;5.918;2023-04-25T14:05:36;426.87;;;397.60;;
22768;SDS011;13001;51.968;5.918;2023-04-25T14:08:07;469.73;;;437.50;;
22768;SDS011;13001;51.968;5.918;2023-04-25T14:10:35;457.87;;;426.60;;
22768;SDS011;13001;51.968;5.918;2023-04-25T14:13:03;334.17;;;311.40;;
22768;SDS011;13001;51.968;5.918;2023-04-25T14:15:33;439.63;;;409.77;;
22768;SDS011;13001;51.968;5.918;2023-04-25T14:18:04;464.93;;;432.77;;
22768;SDS011;13001;51.968;5.918;2023-04-25T14:20:31;461.60;;;428.90;;
22768;SDS011;13001;51.968;5.918;2023-04-25T14:22:59;405.23;;;376.77;;
22768;SDS011;13001;51.968;5.918;2023-04-25T14:25:27;227.53;;;213.10;;
22768;SDS011;13001;51.968;5.918;2023-04-25T14:27:55;207.23;;;194.20;;
22768;SDS011;13001;51.968;5.918;2023-04-25T14:30:24;228.80;;;213.93;;
22768;SDS011;13001;51.968;5.918;2023-04-25T14:32:51;211.70;;;198.13;;
22768;SDS011;13001;51.968;5.918;2023-04-25T14:35:19;286.20;;;265.43;;
22768;SDS011;13001;51.968;5.918;2023-04-25T14:37:46;227.97;;;213.07;;
22768;SDS011;13001;51.968;5.918;2023-04-25T14:40:14;303.97;;;282.47;;
22768;SDS011;13001;51.968;5.918;2023-04-25T14:42:42;301.83;;;281.87;;
22768;SDS011;13001;51.968;5.918;2023-04-25T14:45:11;330.07;;;306.87;;
22768;SDS011;13001;51.968;5.918;2023-04-25T14:47:38;381.73;;;355.93;;
22768;SDS011;13001;51.968;5.918;2023-04-25T14:50:06;450.67;;;419.37;;
22768;SDS011;13001;51.968;5.918;2023-04-25T14:52:34;441.13;;;411.47;;
22768;SDS011;13001;51.968;5.918;2023-04-25T14:55:02;465.70;;;433.80;;
22768;SDS011;13001;51.968;5.918;2023-04-25T14:57:34;397.27;;;370.37;;
22768;SDS011;13001;51.968;5.918;2023-04-25T15:00:02;521.37;;;485.17;;
22768;SDS011;13001;51.968;5.918;2023-04-25T15:02:32;426.10;;;397.47;;
22768;SDS011;13001;51.968;5.918;2023-04-25T15:05:00;316.10;;;295.50;;
22768;SDS011;13001;51.968;5.918;2023-04-25T15:07:28;240.60;;;225.53;;
22768;SDS011;13001;51.968;5.918;2023-04-25T15:09:56;236.83;;;221.93;;
22768;SDS011;13001;51.968;5.918;2023-04-25T15:12:25;317.03;;;295.90;;
22768;SDS011;13001;51.968;5.918;2023-04-25T15:14:54;352.33;;;329.10;;
22768;SDS011;13001;51.968;5.918;2023-04-25T15:17:21;379.93;;;354.47;;
22768;SDS011;13001;51.968;5.918;2023-04-25T15:19:49;367.67;;;343.37;;
22768;SDS011;13001;51.968;5.918;2023-04-25T15:22:17;303.13;;;283.20;;
22768;SDS011;13001;51.968;5.918;2023-04-25T15:24:44;343.00;;;319.67;;
22768;SDS011;13001;51.968;5.918;2023-04-25T15:27:12;451.70;;;421.07;;
22768;SDS011;13001;51.968;5.918;2023-04-25T15:29:39;474.30;;;442.37;;
22768;SDS011;13001;51.968;5.918;2023-04-25T15:32:07;419.20;;;389.90;;
22768;SDS011;13001;51.968;5.918;2023-04-25T15:34:35;266.33;;;248.63;;
22768;SDS011;13001;51.968;5.918;2023-04-25T15:37:04;226.33;;;211.60;;
22768;SDS011;13001;51.968;5.918;2023-04-25T15:39:31;228.67;;;214.03;;
22768;SDS011;13001;51.968;5.918;2023-04-25T15:41:59;234.43;;;219.70;;
22768;SDS011;13001;51.968;5.918;2023-04-25T15:47:01;223.80;;;209.77;;
22768;SDS011;13001;51.968;5.918;2023-04-25T15:49:29;226.97;;;212.07;;
22768;SDS011;13001;51.968;5.918;2023-04-25T15:51:56;228.40;;;212.90;;
22768;SDS011;13001;51.968;5.918;2023-04-25T15:54:24;267.57;;;249.47;;
22768;SDS011;13001;51.968;5.918;2023-04-25T15:56:51;231.17;;;216.10;;
22768;SDS011;13001;51.968;5.918;2023-04-25T15:59:19;275.80;;;258.27;;
22768;SDS011;13001;51.968;5.918;2023-04-25T16:01:46;262.33;;;245.70;;
22768;SDS011;13001;51.968;5.918;2023-04-25T16:04:14;283.00;;;263.90;;
22768;SDS011;13001;51.968;5.918;2023-04-25T16:06:41;411.20;;;380.90;;
22768;SDS011;13001;51.968;5.918;2023-04-25T16:09:09;322.33;;;298.13;;
22768;SDS011;13001;51.968;5.918;2023-04-25T16:11:37;398.50;;;370.73;;
22768;SDS011;13001;51.968;5.918;2023-04-25T16:14:04;460.73;;;428.83;;
22768;SDS011;13001;51.968;5.918;2023-04-25T16:16:33;497.13;;;462.73;;
22768;SDS011;13001;51.968;5.918;2023-04-25T16:19:01;488.90;;;454.80;;
22768;SDS011;13001;51.968;5.918;2023-04-25T16:21:28;385.60;;;359.53;;
22768;SDS011;13001;51.968;5.918;2023-04-25T16:23:56;450.03;;;419.80;;
22768;SDS011;13001;51.968;5.918;2023-04-25T16:26:24;429.07;;;399.43;;
22768;SDS011;13001;51.968;5.918;2023-04-25T16:28:51;391.00;;;364.07;;
22768;SDS011;13001;51.968;5.918;2023-04-25T16:31:20;401.87;;;374.00;;
22768;SDS011;13001;51.968;5.918;2023-04-25T16:33:47;368.00;;;341.13;;
22768;SDS011;13001;51.968;5.918;2023-04-25T16:36:14;289.73;;;269.13;;
22768;SDS011;13001;51.968;5.918;2023-04-25T16:38:42;267.47;;;247.93;;
22768;SDS011;13001;51.968;5.918;2023-04-25T16:41:09;258.07;;;239.60;;
22768;SDS011;13001;51.968;5.918;2023-04-25T16:43:38;257.13;;;239.73;;
22768;SDS011;13001;51.968;5.918;2023-04-25T16:46:06;216.63;;;202.03;;
22768;SDS011;13001;51.968;5.918;2023-04-25T16:48:34;178.67;;;166.43;;